sensor_id;sensor_type;location;lat;lon;timestamp;temperature;humidity
2767;DHT22;1391;46.74287300;11.63683300;2023-07-02T00:00:03;16.70;99.90
2767;DHT22;1391;46.74287300;11.63683300;2023-07-02T00:02:32;16.40;99.90
2767;DHT22;1391;46.74287300;11.63683300;2023-07-02T00:05:00;16.70;99.90
2767;DHT22;1391;46.74287300;11.63683300;2023-07-02T00:07:27;16.20;99.90
2767;DHT22;1391;46.74287300;11.63683300;2023-07-02T00:09:56;16.30;99.90
2767;DHT22;1391;46.74287300;11.63683300;2023-07-02T00:12:23;16.20;99.90
2767;DHT22;1391;46.74287300;11.63683300;2023-07-02T00:14:50;15.90;99.90
2767;DHT22;1391;46.74287300;11.63683300;2023-07-02T00:17:18;16.00;99.90
2767;DHT22;1391;46.74287300;11.63683300;2023-07-02T00:19:46;16.40;99.90
2767;DHT22;1391;46.74287300;11.63683300;2023-07-02T00:22:17;16.30;99.90
2767;DHT22;1391;46.74287300;11.63683300;2023-07-02T00:24:44;16.20;99.90
2767;DHT22;1391;46.74287300;11.63683300;2023-07-02T00:27:12;16.40;99.90
2767;DHT22;1391;46.74287300;11.63683300;2023-07-02T00:29:40;16.40;99.90
2767;DHT22;1391;46.74287300;11.63683300;2023-07-02T00:32:07;16.30;99.90
2767;DHT22;1391;46.74287300;11.63683300;2023-07-02T00:34:34;16.20;99.90
2767;DHT22;1391;46.74287300;11.63683300;2023-07-02T00:37:02;16.30;99.90
2767;DHT22;1391;46.74287300;11.63683300;2023-07-02T00:39:29;16.20;99.90
2767;DHT22;1391;46.74287300;11.63683300;2023-07-02T00:42:00;16.30;99.90
2767;DHT22;1391;46.74287300;11.63683300;2023-07-02T00:44:29;16.00;99.90
2767;DHT22;1391;46.74287300;11.63683300;2023-07-02T00:46:57;16.40;99.90
2767;DHT22;1391;46.74287300;11.63683300;2023-07-02T00:49:24;16.10;99.90
2767;DHT22;1391;46.74287300;11.63683300;2023-07-02T00:51:51;16.30;99.90
2767;DHT22;1391;46.74287300;11.63683300;2023-07-02T00:54:19;16.20;99.90
2767;DHT22;1391;46.74287300;11.63683300;2023-07-02T00:56:46;15.90;99.90
2767;DHT22;1391;46.74287300;11.63683300;2023-07-02T00:59:13;16.10;99.90
2767;DHT22;1391;46.74287300;11.63683300;2023-07-02T01:01:42;16.30;99.90
2767;DHT22;1391;46.74287300;11.63683300;2023-07-02T01:04:09;16.10;99.90
2767;DHT22;1391;46.74287300;11.63683300;2023-07-02T01:06:38;16.20;99.90
2767;DHT22;1391;46.74287300;11.63683300;2023-07-02T01:09:07;16.30;99.90
2767;DHT22;1391;46.74287300;11.63683300;2023-07-02T01:11:38;15.80;99.90
2767;DHT22;1391;46.74287300;11.63683300;2023-07-02T01:14:09;15.40;99.90
2767;DHT22;1391;46.74287300;11.63683300;2023-07-02T01:16:43;16.20;99.90
2767;DHT22;1391;46.74287300;11.63683300;2023-07-02T01:19:12;15.80;99.90
2767;DHT22;1391;46.74287300;11.63683300;2023-07-02T01:21:41;16.20;99.90
2767;DHT22;1391;46.74287300;11.63683300;2023-07-02T01:24:08;16.30;99.90
2767;DHT22;1391;46.74287300;11.63683300;2023-07-02T01:26:36;16.20;99.90
2767;DHT22;1391;46.74287300;11.63683300;2023-07-02T01:29:14;16.30;99.90
2767;DHT22;1391;46.74287300;11.63683300;2023-07-02T01:31:42;16.20;99.90
2767;DHT22;1391;46.74287300;11.63683300;2023-07-02T01:34:09;15.90;99.90
2767;DHT22;1391;46.74287300;11.63683300;2023-07-02T01:36:36;16.10;99.90
2767;DHT22;1391;46.74287300;11.63683300;2023-07-02T01:39:05;16.30;99.90
2767;DHT22;1391;46.74287300;11.63683300;2023-07-02T01:41:37;16.10;99.90
2767;DHT22;1391;46.74287300;11.63683300;2023-07-02T01:44:08;16.30;99.90
2767;DHT22;1391;46.74287300;11.63683300;2023-07-02T01:46:36;16.20;99.90
2767;DHT22;1391;46.74287300;11.63683300;2023-07-02T01:49:03;16.30;99.90
2767;DHT22;1391;46.74287300;11.63683300;2023-07-02T01:51:30;16.20;99.90
2767;DHT22;1391;46.74287300;11.63683300;2023-07-02T01:53:57;16.30;99.90
2767;DHT22;1391;46.74287300;11.63683300;2023-07-02T01:56:26;16.20;99.90
2767;DHT22;1391;46.74287300;11.63683300;2023-07-02T01:58:53;15.90;99.90
2767;DHT22;1391;46.74287300;11.63683300;2023-07-02T02:01:21;16.10;99.90
2767;DHT22;1391;46.74287300;11.63683300;2023-07-02T02:03:48;16.30;99.90
2767;DHT22;1391;46.74287300;11.63683300;2023-07-02T02:06:15;16.20;99.90
2767;DHT22;1391;46.74287300;11.63683300;2023-07-02T02:08:42;15.50;99.90
2767;DHT22;1391;46.74287300;11.63683300;2023-07-02T02:11:09;15.80;99.90
2767;DHT22;1391;46.74287300;11.63683300;2023-07-02T02:13:38;15.80;99.90
2767;DHT22;1391;46.74287300;11.63683300;2023-07-02T02:16:05;15.40;99.90
2767;DHT22;1391;46.74287300;11.63683300;2023-07-02T02:18:32;15.60;99.90
2767;DHT22;1391;46.74287300;11.63683300;2023-07-02T02:21:00;15.40;99.90
2767;DHT22;1391;46.74287300;11.63683300;2023-07-02T02:23:27;15.90;99.90
2767;DHT22;1391;46.74287300;11.63683300;2023-07-02T02:25:54;16.10;99.90
2767;DHT22;1391;46.74287300;11.63683300;2023-07-02T02:28:21;15.80;99.90
2767;DHT22;1391;46.74287300;11.63683300;2023-07-02T02:30:50;16.20;99.90
2767;DHT22;1391;46.74287300;11.63683300;2023-07-02T02:33:17;16.30;99.90
2767;DHT22;1391;46.74287300;11.63683300;2023-07-02T02:35:44;16.20;99.90
2767;DHT22;1391;46.74287300;11.63683300;2023-07-02T02:38:12;15.90;99.90
2767;DHT22;1391;46.74287300;11.63683300;2023-07-02T02:40:40;16.10;99.90
2767;DHT22;1391;46.74287300;11.63683300;2023-07-02T02:43:07;16.20;99.90
2767;DHT22;1391;46.74287300;11.63683300;2023-07-02T02:45:34;15.90;99.90
2767;DHT22;1391;46.74287300;11.63683300;2023-07-02T02:48:03;16.20;99.90
2767;DHT22;1391;46.74287300;11.63683300;2023-07-02T02:50:30;15.60;99.90
2767;DHT22;1391;46.74287300;11.63683300;2023-07-02T02:52:58;15.40;99.90
2767;DHT22;1391;46.74287300;11.63683300;2023-07-02T02:55:26;15.60;99.90
2767;DHT22;1391;46.74287300;11.63683300;2023-07-02T02:57:53;15.80;99.90
2767;DHT22;1391;46.74287300;11.63683300;2023-07-02T03:00:21;15.70;99.90
2767;DHT22;1391;46.74287300;11.63683300;2023-07-02T03:02:48;15.70;99.90
2767;DHT22;1391;46.74287300;11.63683300;2023-07-02T03:05:16;15.30;99.90
2767;DHT22;1391;46.74287300;11.63683300;2023-07-02T03:07:44;14.90;99.90
2767;DHT22;1391;46.74287300;11.63683300;2023-07-02T03:10:11;15.10;99.90
2767;DHT22;1391;46.74287300;11.63683300;2023-07-02T03:12:38;14.90;99.90
2767;DHT22;1391;46.74287300;11.63683300;2023-07-02T03:15:06;15.00;99.90
2767;DHT22;1391;46.74287300;11.63683300;2023-07-02T03:17:35;15.20;99.90
2767;DHT22;1391;46.74287300;11.63683300;2023-07-02T03:20:03;15.20;99.90
2767;DHT22;1391;46.74287300;11.63683300;2023-07-02T03:22:32;15.20;99.90
2767;DHT22;1391;46.74287300;11.63683300;2023-07-02T03:25:00;15.20;99.90
2767;DHT22;1391;46.74287300;11.63683300;2023-07-02T03:27:27;14.40;99.90
2767;DHT22;1391;46.74287300;11.63683300;2023-07-02T03:29:55;14.50;99.90
2767;DHT22;1391;46.74287300;11.63683300;2023-07-02T03:32:24;14.40;99.90
2767;DHT22;1391;46.74287300;11.63683300;2023-07-02T03:34:51;14.50;99.90
2767;DHT22;1391;46.74287300;11.63683300;2023-07-02T03:37:19;14.40;99.90
2767;DHT22;1391;46.74287300;11.63683300;2023-07-02T03:39:47;14.50;99.90
2767;DHT22;1391;46.74287300;11.63683300;2023-07-02T03:42:15;14.80;99.90
2767;DHT22;1391;46.74287300;11.63683300;2023-07-02T03:44:42;14.80;99.90
2767;DHT22;1391;46.74287300;11.63683300;2023-07-02T03:47:09;14.80;99.90
2767;DHT22;1391;46.74287300;11.63683300;2023-07-02T03:49:38;14.40;99.90
2767;DHT22;1391;46.74287300;11.63683300;2023-07-02T03:52:06;14.50;99.90
2767;DHT22;1391;46.74287300;11.63683300;2023-07-02T03:54:34;14.40;99.90
2767;DHT22;1391;46.74287300;11.63683300;2023-07-02T03:57:03;15.10;99.90
2767;DHT22;1391;46.74287300;11.63683300;2023-07-02T03:59:30;14.70;99.90
2767;DHT22;1391;46.74287300;11.63683300;2023-07-02T04:01:58;14.30;99.90
2767;DHT22;1391;46.74287300;11.63683300;2023-07-02T04:04:25;14.40;99.90
2767;DHT22;1391;46.74287300;11.63683300;2023-07-02T04:06:53;14.60;99.90
2767;DHT22;1391;46.74287300;11.63683300;2023-07-02T04:09:20;14.40;99.90
2767;DHT22;1391;46.74287300;11.63683300;2023-07-02T04:11:47;14.60;99.90
2767;DHT22;1391;46.74287300;11.63683300;2023-07-02T04:14:16;14.40;99.90
2767;DHT22;1391;46.74287300;11.63683300;2023-07-02T04:16:44;14.50;99.90
2767;DHT22;1391;46.74287300;11.63683300;2023-07-02T04:19:11;14.90;99.90
2767;DHT22;1391;46.74287300;11.63683300;2023-07-02T04:21:39;15.10;99.90
2767;DHT22;1391;46.74287300;11.63683300;2023-07-02T04:24:06;14.90;99.90
2767;DHT22;1391;46.74287300;11.63683300;2023-07-02T04:26:35;15.10;99.90
2767;DHT22;1391;46.74287300;11.63683300;2023-07-02T04:29:03;15.30;99.90
2767;DHT22;1391;46.74287300;11.63683300;2023-07-02T04:31:32;15.30;99.90
2767;DHT22;1391;46.74287300;11.63683300;2023-07-02T04:33:59;15.40;99.90
2767;DHT22;1391;46.74287300;11.63683300;2023-07-02T04:36:26;15.50;99.90
2767;DHT22;1391;46.74287300;11.63683300;2023-07-02T04:38:54;15.40;99.90
2767;DHT22;1391;46.74287300;11.63683300;2023-07-02T04:41:21;15.40;99.90
2767;DHT22;1391;46.74287300;11.63683300;2023-07-02T04:43:49;15.90;99.90
2767;DHT22;1391;46.74287300;11.63683300;2023-07-02T04:46:18;16.10;99.90
2767;DHT22;1391;46.74287300;11.63683300;2023-07-02T04:48:48;16.30;99.90
2767;DHT22;1391;46.74287300;11.63683300;2023-07-02T04:51:15;16.20;99.90
2767;DHT22;1391;46.74287300;11.63683300;2023-07-02T04:53:43;16.30;99.90
2767;DHT22;1391;46.74287300;11.63683300;2023-07-02T04:56:10;16.20;99.90
2767;DHT22;1391;46.74287300;11.63683300;2023-07-02T04:58:37;16.30;99.90
2767;DHT22;1391;46.74287300;11.63683300;2023-07-02T05:01:04;16.20;99.90
2767;DHT22;1391;46.74287300;11.63683300;2023-07-02T05:03:31;16.40;99.90
2767;DHT22;1391;46.74287300;11.63683300;2023-07-02T05:06:00;16.30;99.90
2767;DHT22;1391;46.74287300;11.63683300;2023-07-02T05:08:27;16.20;99.90
2767;DHT22;1391;46.74287300;11.63683300;2023-07-02T05:10:55;16.80;99.90
2767;DHT22;1391;46.74287300;11.63683300;2023-07-02T05:13:22;16.70;99.90
2767;DHT22;1391;46.74287300;11.63683300;2023-07-02T05:15:49;16.60;99.90
2767;DHT22;1391;46.74287300;11.63683300;2023-07-02T05:18:17;16.70;99.90
2767;DHT22;1391;46.74287300;11.63683300;2023-07-02T05:20:45;16.50;99.90
2767;DHT22;1391;46.74287300;11.63683300;2023-07-02T05:23:14;16.80;99.90
2767;DHT22;1391;46.74287300;11.63683300;2023-07-02T05:25:41;16.80;99.90
2767;DHT22;1391;46.74287300;11.63683300;2023-07-02T05:28:09;17.20;99.90
2767;DHT22;1391;46.74287300;11.63683300;2023-07-02T05:30:36;16.90;99.90
2767;DHT22;1391;46.74287300;11.63683300;2023-07-02T05:33:03;16.60;99.90
2767;DHT22;1391;46.74287300;11.63683300;2023-07-02T05:35:30;17.20;99.90
2767;DHT22;1391;46.74287300;11.63683300;2023-07-02T05:37:58;17.50;99.90
2767;DHT22;1391;46.74287300;11.63683300;2023-07-02T05:40:26;17.20;99.90
2767;DHT22;1391;46.74287300;11.63683300;2023-07-02T05:42:54;17.40;98.90
2767;DHT22;1391;46.74287300;11.63683300;2023-07-02T05:45:21;17.30;98.80
2767;DHT22;1391;46.74287300;11.63683300;2023-07-02T05:47:49;17.80;97.60
2767;DHT22;1391;46.74287300;11.63683300;2023-07-02T05:50:16;17.40;97.70
2767;DHT22;1391;46.74287300;11.63683300;2023-07-02T05:52:47;17.80;98.00
2767;DHT22;1391;46.74287300;11.63683300;2023-07-02T05:55:14;17.60;97.20
2767;DHT22;1391;46.74287300;11.63683300;2023-07-02T05:57:43;17.80;95.80
2767;DHT22;1391;46.74287300;11.63683300;2023-07-02T06:00:11;17.80;96.40
2767;DHT22;1391;46.74287300;11.63683300;2023-07-02T06:02:39;18.00;95.20
2767;DHT22;1391;46.74287300;11.63683300;2023-07-02T06:05:07;17.90;94.10
2767;DHT22;1391;46.74287300;11.63683300;2023-07-02T06:07:35;17.90;92.10
2767;DHT22;1391;46.74287300;11.63683300;2023-07-02T06:10:03;17.70;92.60
2767;DHT22;1391;46.74287300;11.63683300;2023-07-02T06:12:31;18.00;94.30
2767;DHT22;1391;46.74287300;11.63683300;2023-07-02T06:15:00;17.80;93.50
2767;DHT22;1391;46.74287300;11.63683300;2023-07-02T06:17:28;18.50;93.20
2767;DHT22;1391;46.74287300;11.63683300;2023-07-02T06:19:56;18.50;92.40
2767;DHT22;1391;46.74287300;11.63683300;2023-07-02T06:22:24;18.50;92.10
2767;DHT22;1391;46.74287300;11.63683300;2023-07-02T06:24:51;18.40;91.50
2767;DHT22;1391;46.74287300;11.63683300;2023-07-02T06:27:19;18.50;90.50
2767;DHT22;1391;46.74287300;11.63683300;2023-07-02T06:29:47;18.50;94.60
2767;DHT22;1391;46.74287300;11.63683300;2023-07-02T06:32:16;18.40;94.00
2767;DHT22;1391;46.74287300;11.63683300;2023-07-02T06:34:44;18.40;92.40
2767;DHT22;1391;46.74287300;11.63683300;2023-07-02T06:37:12;18.40;91.30
2767;DHT22;1391;46.74287300;11.63683300;2023-07-02T06:39:40;18.60;89.40
2767;DHT22;1391;46.74287300;11.63683300;2023-07-02T06:42:07;19.00;87.60
2767;DHT22;1391;46.74287300;11.63683300;2023-07-02T06:44:35;19.20;84.90
2767;DHT22;1391;46.74287300;11.63683300;2023-07-02T06:47:02;19.00;82.30
2767;DHT22;1391;46.74287300;11.63683300;2023-07-02T06:49:31;18.60;78.10
2767;DHT22;1391;46.74287300;11.63683300;2023-07-02T06:51:59;18.90;78.70
2767;DHT22;1391;46.74287300;11.63683300;2023-07-02T06:54:27;19.20;80.80
2767;DHT22;1391;46.74287300;11.63683300;2023-07-02T06:56:54;19.50;75.40
2767;DHT22;1391;46.74287300;11.63683300;2023-07-02T06:59:21;19.70;83.40
2767;DHT22;1391;46.74287300;11.63683300;2023-07-02T07:01:49;19.80;74.50
2767;DHT22;1391;46.74287300;11.63683300;2023-07-02T07:04:17;20.30;74.30
2767;DHT22;1391;46.74287300;11.63683300;2023-07-02T07:06:45;20.20;70.70
2767;DHT22;1391;46.74287300;11.63683300;2023-07-02T07:09:13;20.20;74.40
2767;DHT22;1391;46.74287300;11.63683300;2023-07-02T07:11:40;20.30;76.80
2767;DHT22;1391;46.74287300;11.63683300;2023-07-02T07:14:07;20.20;69.30
2767;DHT22;1391;46.74287300;11.63683300;2023-07-02T07:16:34;20.20;68.70
2767;DHT22;1391;46.74287300;11.63683300;2023-07-02T07:19:02;20.20;69.70
2767;DHT22;1391;46.74287300;11.63683300;2023-07-02T07:21:29;20.40;70.40
2767;DHT22;1391;46.74287300;11.63683300;2023-07-02T07:23:58;20.30;69.40
2767;DHT22;1391;46.74287300;11.63683300;2023-07-02T07:26:25;20.30;67.00
2767;DHT22;1391;46.74287300;11.63683300;2023-07-02T07:28:53;20.60;67.70
2767;DHT22;1391;46.74287300;11.63683300;2023-07-02T07:31:21;21.20;71.40
2767;DHT22;1391;46.74287300;11.63683300;2023-07-02T07:33:49;21.10;68.70
2767;DHT22;1391;46.74287300;11.63683300;2023-07-02T07:36:16;21.00;58.00
2767;DHT22;1391;46.74287300;11.63683300;2023-07-02T07:38:43;20.90;58.80
2767;DHT22;1391;46.74287300;11.63683300;2023-07-02T07:41:12;20.90;52.00
2767;DHT22;1391;46.74287300;11.63683300;2023-07-02T07:43:39;20.90;60.80
2767;DHT22;1391;46.74287300;11.63683300;2023-07-02T07:46:06;21.00;73.30
2767;DHT22;1391;46.74287300;11.63683300;2023-07-02T07:48:34;21.30;66.50
2767;DHT22;1391;46.74287300;11.63683300;2023-07-02T07:51:01;20.90;59.60
2767;DHT22;1391;46.74287300;11.63683300;2023-07-02T07:53:28;21.00;56.20
2767;DHT22;1391;46.74287300;11.63683300;2023-07-02T07:55:55;21.10;54.60
2767;DHT22;1391;46.74287300;11.63683300;2023-07-02T07:58:24;20.90;54.30
2767;DHT22;1391;46.74287300;11.63683300;2023-07-02T08:00:51;21.30;56.00
2767;DHT22;1391;46.74287300;11.63683300;2023-07-02T08:03:19;21.20;52.00
2767;DHT22;1391;46.74287300;11.63683300;2023-07-02T08:05:46;20.50;66.40
2767;DHT22;1391;46.74287300;11.63683300;2023-07-02T08:08:13;21.10;76.10
2767;DHT22;1391;46.74287300;11.63683300;2023-07-02T08:10:41;20.60;65.20
2767;DHT22;1391;46.74287300;11.63683300;2023-07-02T08:13:08;20.60;57.80
2767;DHT22;1391;46.74287300;11.63683300;2023-07-02T08:15:37;21.10;58.10
2767;DHT22;1391;46.74287300;11.63683300;2023-07-02T08:18:05;21.10;62.30
2767;DHT22;1391;46.74287300;11.63683300;2023-07-02T08:20:34;21.10;63.30
2767;DHT22;1391;46.74287300;11.63683300;2023-07-02T08:23:02;21.40;60.20
2767;DHT22;1391;46.74287300;11.63683300;2023-07-02T08:25:29;21.30;65.40
2767;DHT22;1391;46.74287300;11.63683300;2023-07-02T08:27:57;21.40;58.80
2767;DHT22;1391;46.74287300;11.63683300;2023-07-02T08:30:24;21.10;51.50
2767;DHT22;1391;46.74287300;11.63683300;2023-07-02T08:32:53;21.20;53.10
2767;DHT22;1391;46.74287300;11.63683300;2023-07-02T08:35:21;21.40;54.10
2767;DHT22;1391;46.74287300;11.63683300;2023-07-02T08:37:48;21.20;49.80
2767;DHT22;1391;46.74287300;11.63683300;2023-07-02T08:40:16;21.20;55.30
2767;DHT22;1391;46.74287300;11.63683300;2023-07-02T08:42:45;21.40;59.20
2767;DHT22;1391;46.74287300;11.63683300;2023-07-02T08:45:14;21.50;66.30
2767;DHT22;1391;46.74287300;11.63683300;2023-07-02T08:47:43;21.10;49.10
2767;DHT22;1391;46.74287300;11.63683300;2023-07-02T08:50:13;21.20;57.60
2767;DHT22;1391;46.74287300;11.63683300;2023-07-02T08:52:40;21.50;52.10
2767;DHT22;1391;46.74287300;11.63683300;2023-07-02T08:55:10;21.30;55.30
2767;DHT22;1391;46.74287300;11.63683300;2023-07-02T08:57:38;21.20;50.60
2767;DHT22;1391;46.74287300;11.63683300;2023-07-02T09:00:08;21.50;45.60
2767;DHT22;1391;46.74287300;11.63683300;2023-07-02T09:02:36;21.50;46.50
2767;DHT22;1391;46.74287300;11.63683300;2023-07-02T09:05:04;21.20;52.40
2767;DHT22;1391;46.74287300;11.63683300;2023-07-02T09:07:43;22.00;45.20
2767;DHT22;1391;46.74287300;11.63683300;2023-07-02T09:10:12;21.40;51.70
2767;DHT22;1391;46.74287300;11.63683300;2023-07-02T09:12:39;21.60;59.10
2767;DHT22;1391;46.74287300;11.63683300;2023-07-02T09:15:07;22.00;57.20
2767;DHT22;1391;46.74287300;11.63683300;2023-07-02T09:17:36;21.60;45.20
2767;DHT22;1391;46.74287300;11.63683300;2023-07-02T09:20:05;22.10;48.80
2767;DHT22;1391;46.74287300;11.63683300;2023-07-02T09:22:35;22.00;42.70
2767;DHT22;1391;46.74287300;11.63683300;2023-07-02T09:25:04;22.10;46.40
2767;DHT22;1391;46.74287300;11.63683300;2023-07-02T09:27:36;21.50;51.30
2767;DHT22;1391;46.74287300;11.63683300;2023-07-02T09:30:09;21.70;63.40
2767;DHT22;1391;46.74287300;11.63683300;2023-07-02T09:32:39;21.50;54.80
2767;DHT22;1391;46.74287300;11.63683300;2023-07-02T09:35:07;21.40;59.90
2767;DHT22;1391;46.74287300;11.63683300;2023-07-02T09:37:36;21.40;58.10
2767;DHT22;1391;46.74287300;11.63683300;2023-07-02T09:40:04;21.50;60.90
2767;DHT22;1391;46.74287300;11.63683300;2023-07-02T09:42:35;21.50;59.20
2767;DHT22;1391;46.74287300;11.63683300;2023-07-02T09:45:03;21.40;55.20
2767;DHT22;1391;46.74287300;11.63683300;2023-07-02T09:47:35;21.50;60.80
2767;DHT22;1391;46.74287300;11.63683300;2023-07-02T09:50:07;21.60;60.60
2767;DHT22;1391;46.74287300;11.63683300;2023-07-02T09:52:36;22.10;56.60
2767;DHT22;1391;46.74287300;11.63683300;2023-07-02T09:55:05;22.10;60.00
2767;DHT22;1391;46.74287300;11.63683300;2023-07-02T09:57:34;22.90;41.30
2767;DHT22;1391;46.74287300;11.63683300;2023-07-02T10:00:02;22.90;41.60
2767;DHT22;1391;46.74287300;11.63683300;2023-07-02T10:02:30;23.00;38.40
2767;DHT22;1391;46.74287300;11.63683300;2023-07-02T10:04:58;23.00;38.10
2767;DHT22;1391;46.74287300;11.63683300;2023-07-02T10:07:27;23.00;37.70
2767;DHT22;1391;46.74287300;11.63683300;2023-07-02T10:09:57;23.10;45.60
2767;DHT22;1391;46.74287300;11.63683300;2023-07-02T10:12:26;23.10;35.80
2767;DHT22;1391;46.74287300;11.63683300;2023-07-02T10:14:55;23.10;50.40
2767;DHT22;1391;46.74287300;11.63683300;2023-07-02T10:17:24;23.00;55.70
2767;DHT22;1391;46.74287300;11.63683300;2023-07-02T10:19:53;23.10;50.20
2767;DHT22;1391;46.74287300;11.63683300;2023-07-02T10:22:21;23.00;48.30
2767;DHT22;1391;46.74287300;11.63683300;2023-07-02T10:24:53;22.90;56.10
2767;DHT22;1391;46.74287300;11.63683300;2023-07-02T10:27:35;22.90;54.20
2767;DHT22;1391;46.74287300;11.63683300;2023-07-02T10:30:03;22.80;62.60
2767;DHT22;1391;46.74287300;11.63683300;2023-07-02T10:32:32;23.00;39.40
2767;DHT22;1391;46.74287300;11.63683300;2023-07-02T10:35:00;23.20;41.40
2767;DHT22;1391;46.74287300;11.63683300;2023-07-02T10:37:35;23.10;34.90
2767;DHT22;1391;46.74287300;11.63683300;2023-07-02T10:40:04;23.10;33.80
2767;DHT22;1391;46.74287300;11.63683300;2023-07-02T10:42:43;23.20;36.30
2767;DHT22;1391;46.74287300;11.63683300;2023-07-02T10:45:11;23.30;55.20
2767;DHT22;1391;46.74287300;11.63683300;2023-07-02T10:47:39;23.80;33.90
2767;DHT22;1391;46.74287300;11.63683300;2023-07-02T10:50:15;23.30;51.70
2767;DHT22;1391;46.74287300;11.63683300;2023-07-02T10:52:42;23.20;37.30
2767;DHT22;1391;46.74287300;11.63683300;2023-07-02T10:55:10;23.40;38.40
2767;DHT22;1391;46.74287300;11.63683300;2023-07-02T10:57:40;23.40;52.10
2767;DHT22;1391;46.74287300;11.63683300;2023-07-02T11:00:08;24.00;53.90
2767;DHT22;1391;46.74287300;11.63683300;2023-07-02T11:02:36;23.30;46.70
2767;DHT22;1391;46.74287300;11.63683300;2023-07-02T11:05:04;23.20;48.70
2767;DHT22;1391;46.74287300;11.63683300;2023-07-02T11:07:33;23.50;55.10
2767;DHT22;1391;46.74287300;11.63683300;2023-07-02T11:10:00;23.20;46.20
2767;DHT22;1391;46.74287300;11.63683300;2023-07-02T11:12:28;23.00;48.80
2767;DHT22;1391;46.74287300;11.63683300;2023-07-02T11:15:09;23.20;49.50
2767;DHT22;1391;46.74287300;11.63683300;2023-07-02T11:17:39;23.80;43.20
2767;DHT22;1391;46.74287300;11.63683300;2023-07-02T11:20:08;23.80;36.40
2767;DHT22;1391;46.74287300;11.63683300;2023-07-02T11:22:37;23.90;37.20
2767;DHT22;1391;46.74287300;11.63683300;2023-07-02T11:25:12;25.00;35.90
2767;DHT22;1391;46.74287300;11.63683300;2023-07-02T11:27:40;25.00;30.60
2767;DHT22;1391;46.74287300;11.63683300;2023-07-02T11:30:11;25.10;30.10
2767;DHT22;1391;46.74287300;11.63683300;2023-07-02T11:32:50;25.60;37.90
2767;DHT22;1391;46.74287300;11.63683300;2023-07-02T11:35:18;25.70;39.70
2767;DHT22;1391;46.74287300;11.63683300;2023-07-02T11:37:45;25.10;31.20
2767;DHT22;1391;46.74287300;11.63683300;2023-07-02T11:40:16;25.00;32.60
2767;DHT22;1391;46.74287300;11.63683300;2023-07-02T11:42:44;24.30;35.70
2767;DHT22;1391;46.74287300;11.63683300;2023-07-02T11:45:13;24.90;46.80
2767;DHT22;1391;46.74287300;11.63683300;2023-07-02T11:47:40;24.80;53.10
2767;DHT22;1391;46.74287300;11.63683300;2023-07-02T11:50:08;24.20;38.40
2767;DHT22;1391;46.74287300;11.63683300;2023-07-02T11:52:37;24.20;34.70
2767;DHT22;1391;46.74287300;11.63683300;2023-07-02T11:55:06;24.00;35.20
2767;DHT22;1391;46.74287300;11.63683300;2023-07-02T11:57:34;24.90;39.60
2767;DHT22;1391;46.74287300;11.63683300;2023-07-02T12:00:01;25.30;31.20
2767;DHT22;1391;46.74287300;11.63683300;2023-07-02T12:02:30;26.10;34.70
2767;DHT22;1391;46.74287300;11.63683300;2023-07-02T12:04:58;25.80;27.90
2767;DHT22;1391;46.74287300;11.63683300;2023-07-02T12:07:25;26.00;30.00
2767;DHT22;1391;46.74287300;11.63683300;2023-07-02T12:09:52;25.50;24.20
2767;DHT22;1391;46.74287300;11.63683300;2023-07-02T12:12:19;25.60;12.10
2767;DHT22;1391;46.74287300;11.63683300;2023-07-02T12:14:47;24.60;22.50
2767;DHT22;1391;46.74287300;11.63683300;2023-07-02T12:17:14;24.70;28.40
2767;DHT22;1391;46.74287300;11.63683300;2023-07-02T12:19:43;24.60;25.80
2767;DHT22;1391;46.74287300;11.63683300;2023-07-02T12:22:10;24.60;27.20
2767;DHT22;1391;46.74287300;11.63683300;2023-07-02T12:24:41;24.60;23.20
2767;DHT22;1391;46.74287300;11.63683300;2023-07-02T12:27:08;24.60;28.30
2767;DHT22;1391;46.74287300;11.63683300;2023-07-02T12:29:37;24.50;20.40
2767;DHT22;1391;46.74287300;11.63683300;2023-07-02T12:32:05;24.60;27.30
2767;DHT22;1391;46.74287300;11.63683300;2023-07-02T12:34:33;24.50;22.40
2767;DHT22;1391;46.74287300;11.63683300;2023-07-02T12:37:02;24.60;28.30
2767;DHT22;1391;46.74287300;11.63683300;2023-07-02T12:39:30;24.60;21.10
2767;DHT22;1391;46.74287300;11.63683300;2023-07-02T12:41:57;24.60;22.30
2767;DHT22;1391;46.74287300;11.63683300;2023-07-02T12:44:24;24.60;23.20
2767;DHT22;1391;46.74287300;11.63683300;2023-07-02T12:46:52;24.60;28.50
2767;DHT22;1391;46.74287300;11.63683300;2023-07-02T12:49:19;24.50;29.30
2767;DHT22;1391;46.74287300;11.63683300;2023-07-02T12:51:47;24.50;31.10
2767;DHT22;1391;46.74287300;11.63683300;2023-07-02T12:54:15;24.70;29.90
2767;DHT22;1391;46.74287300;11.63683300;2023-07-02T12:56:43;24.50;37.30
2767;DHT22;1391;46.74287300;11.63683300;2023-07-02T12:59:10;24.60;30.60
2767;DHT22;1391;46.74287300;11.63683300;2023-07-02T13:01:37;24.60;38.00
2767;DHT22;1391;46.74287300;11.63683300;2023-07-02T13:04:05;24.60;38.10
2767;DHT22;1391;46.74287300;11.63683300;2023-07-02T13:06:32;24.60;31.80
2767;DHT22;1391;46.74287300;11.63683300;2023-07-02T13:09:05;24.60;26.80
2767;DHT22;1391;46.74287300;11.63683300;2023-07-02T13:11:34;24.60;29.20
2767;DHT22;1391;46.74287300;11.63683300;2023-07-02T13:14:02;24.50;28.70
2767;DHT22;1391;46.74287300;11.63683300;2023-07-02T13:16:29;24.60;31.20
2767;DHT22;1391;46.74287300;11.63683300;2023-07-02T13:18:56;24.70;40.60
2767;DHT22;1391;46.74287300;11.63683300;2023-07-02T13:21:25;25.30;46.60
2767;DHT22;1391;46.74287300;11.63683300;2023-07-02T13:23:53;25.50;28.70
2767;DHT22;1391;46.74287300;11.63683300;2023-07-02T13:26:20;25.50;18.40
2767;DHT22;1391;46.74287300;11.63683300;2023-07-02T13:28:48;25.60;19.20
2767;DHT22;1391;46.74287300;11.63683300;2023-07-02T13:31:16;25.40;19.90
2767;DHT22;1391;46.74287300;11.63683300;2023-07-02T13:33:43;25.30;19.30
2767;DHT22;1391;46.74287300;11.63683300;2023-07-02T13:36:12;25.20;19.30
2767;DHT22;1391;46.74287300;11.63683300;2023-07-02T13:38:39;25.40;24.40